createdAt,value
2019-02-28T00:03:53.230Z,46.33
2019-02-28T00:08:58.678Z,53.25
2019-02-28T00:14:04.117Z,51.55
2019-02-28T00:19:09.733Z,49.42
2019-02-28T00:24:15.212Z,50.10
2019-02-28T00:29:20.620Z,44.55
2019-02-28T00:34:26.030Z,47.20
2019-02-28T00:39:34.762Z,45.85
2019-02-28T00:44:38.658Z,49.00
2019-02-28T00:49:44.017Z,45.52
2019-02-28T00:54:49.508Z,47.27
2019-02-28T00:59:54.935Z,46.68
2019-02-28T01:05:01.309Z,50.08
2019-02-28T01:10:10.708Z,55.55
2019-02-28T01:15:17.581Z,48.80
2019-02-28T01:20:23.016Z,49.98
2019-02-28T01:25:28.385Z,51.35
2019-02-28T01:30:33.793Z,51.35
2019-02-28T01:35:40.797Z,54.88
2019-02-28T01:40:46.260Z,53.48
2019-02-28T01:45:51.624Z,53.92
2019-02-28T01:50:57.047Z,50.55
2019-02-28T01:56:03.241Z,44.35
2019-02-28T02:01:08.938Z,51.80
2019-02-28T02:06:14.302Z,50.50
2019-02-28T02:11:19.662Z,53.20
2019-02-28T02:16:27.697Z,49.48
2019-02-28T02:21:34.914Z,56.33
2019-02-28T02:26:39.109Z,52.05
2019-02-28T02:31:44.457Z,49.77
2019-02-28T02:36:54.255Z,48.15
2019-02-28T02:41:56.951Z,54.90
2019-02-28T02:47:02.443Z,49.40
2019-02-28T02:52:07.956Z,53.42
2019-02-28T02:57:19.538Z,49.40
2019-02-28T03:02:28.762Z,48.00
2019-02-28T03:07:32.010Z,49.80
2019-02-28T03:12:37.444Z,57.50
2019-02-28T03:17:46.478Z,47.62
2019-02-28T03:22:50.062Z,46.92
2019-02-28T03:27:56.736Z,45.52
2019-02-28T03:33:02.488Z,49.40
2019-02-28T03:38:11.301Z,46.18
2019-02-28T03:43:15.065Z,47.40
2019-02-28T03:48:20.458Z,47.80
2019-02-28T03:53:25.955Z,48.10
2019-02-28T03:58:31.509Z,46.85
2019-02-28T04:03:37.056Z,48.55
2019-02-28T04:08:42.472Z,39.30
2019-02-28T04:13:47.893Z,37.85
2019-02-28T04:18:53.331Z,43.45
2019-02-28T04:23:58.675Z,46.50
2019-02-28T04:29:04.026Z,44.45
2019-02-28T04:34:12.885Z,43.23
2019-02-28T04:39:16.425Z,38.30
2019-02-28T04:44:21.810Z,35.33
2019-02-28T04:49:27.182Z,38.00
2019-02-28T04:54:32.673Z,37.03
2019-02-28T04:59:37.998Z,41.13
2019-02-28T05:04:43.531Z,42.85
2019-02-28T05:09:50.542Z,32.65
2019-02-28T05:14:58.547Z,39.45
2019-02-28T05:20:02.995Z,36.38
2019-02-28T05:25:09.992Z,40.25
2019-02-28T05:30:19.519Z,34.92
2019-02-28T05:35:26.646Z,32.50
2019-02-28T05:40:30.826Z,37.35
2019-02-28T05:45:36.182Z,36.95
2019-02-28T05:50:41.683Z,35.08
2019-02-28T05:55:47.087Z,36.98
2019-02-28T06:00:52.441Z,32.60
2019-02-28T06:05:57.983Z,31.65
2019-02-28T06:11:03.470Z,30.20
2019-02-28T06:16:12.306Z,34.08
2019-02-28T06:21:15.889Z,28.30
2019-02-28T06:26:21.303Z,29.00
2019-02-28T06:31:26.658Z,32.30
2019-02-28T06:36:32.190Z,27.10
2019-02-28T06:41:39.842Z,25.10
2019-02-28T06:46:44.583Z,29.87
2019-02-28T06:51:51.338Z,27.42
2019-02-28T06:56:57.053Z,27.67
2019-02-28T07:02:02.501Z,26.37
2019-02-28T07:07:10.254Z,25.80
2019-02-28T07:12:15.067Z,22.82
2019-02-28T07:17:20.430Z,31.62
2019-02-28T07:22:26.691Z,36.90
2019-02-28T07:27:32.044Z,28.55
2019-02-28T07:32:37.447Z,24.05
2019-02-28T07:37:42.930Z,32.15
2019-02-28T07:42:48.330Z,29.52
2019-02-28T07:47:53.747Z,27.10
2019-02-28T07:52:59.117Z,27.85
2019-02-28T07:58:04.878Z,25.23
2019-02-28T08:03:11.293Z,28.52
2019-02-28T08:08:17.496Z,27.27
2019-02-28T08:13:22.931Z,24.98
2019-02-28T08:18:28.418Z,31.42
2019-02-28T08:23:33.917Z,32.45
2019-02-28T08:28:39.671Z,36.05
2019-02-28T08:33:48.146Z,37.60
2019-02-28T08:38:52.082Z,43.00
2019-02-28T08:43:57.437Z,33.23
2019-02-28T08:49:06.314Z,38.42
2019-02-28T08:54:09.841Z,33.58
2019-02-28T08:59:18.232Z,38.50
2019-02-28T09:04:22.498Z,35.00
2019-02-28T09:09:27.862Z,36.77
2019-02-28T09:14:33.394Z,38.08
2019-02-28T09:19:38.878Z,37.58
2019-02-28T09:24:46.734Z,32.67
2019-02-28T09:29:54.356Z,38.83
2019-02-28T09:34:58.461Z,38.83
2019-02-28T09:40:05.495Z,38.30
2019-02-28T09:45:19.102Z,39.30
2019-02-28T09:50:24.582Z,36.68
2019-02-28T09:55:34.369Z,35.73
2019-02-28T10:00:37.298Z,46.92
2019-02-28T10:05:43.342Z,36.10
2019-02-28T10:10:52.346Z,35.05
2019-02-28T10:15:56.328Z,36.68
2019-02-28T10:21:02.642Z,40.67
2019-02-28T10:26:08.315Z,44.90
2019-02-28T10:31:13.754Z,45.25
2019-02-28T10:36:19.270Z,59.10
2019-02-28T10:41:27.976Z,52.40
2019-02-28T10:46:31.896Z,51.77
2019-02-28T10:51:37.233Z,47.40
2019-02-28T10:56:47.400Z,45.85
2019-02-28T11:01:52.968Z,47.33
2019-02-28T11:06:59.327Z,41.40
2019-02-28T11:12:05.973Z,47.35
2019-02-28T11:17:13.825Z,48.85
2019-02-28T11:22:18.799Z,39.05
2019-02-28T11:27:24.296Z,42.23
2019-02-28T11:32:29.987Z,41.65
2019-02-28T11:37:35.772Z,40.98
2019-02-28T11:42:41.534Z,39.48
2019-02-28T11:47:48.706Z,33.20
2019-02-28T11:52:54.132Z,37.05
2019-02-28T11:57:59.693Z,33.05
2019-02-28T12:03:05.899Z,38.55
2019-02-28T12:08:11.570Z,38.25
2019-02-28T12:13:19.581Z,38.10
2019-02-28T12:18:26.117Z,36.93
2019-02-28T12:23:31.251Z,34.50
2019-02-28T12:28:38.419Z,38.23
2019-02-28T12:33:43.670Z,33.30
2019-02-28T12:38:49.150Z,40.55
2019-02-28T12:43:54.575Z,33.63
2019-02-28T12:49:00.073Z,41.83
2019-02-28T12:54:05.591Z,38.33
2019-02-28T12:59:10.970Z,38.90
2019-02-28T13:04:16.376Z,37.25
2019-02-28T13:09:21.896Z,35.92
2019-02-28T13:14:27.384Z,36.03
2019-02-28T13:19:32.906Z,39.92
2019-02-28T13:24:38.324Z,35.98
2019-02-28T13:29:43.758Z,42.85
2019-02-28T13:34:49.262Z,45.67
2019-02-28T13:39:54.764Z,42.10
2019-02-28T13:45:00.324Z,45.45
2019-02-28T13:50:08.805Z,39.63
2019-02-28T13:55:19.027Z,43.65
2019-02-28T14:00:28.182Z,39.90
2019-02-28T14:05:38.660Z,38.25
2019-02-28T14:10:41.211Z,38.88
2019-02-28T14:15:52.604Z,50.95
2019-02-28T14:20:59.532Z,40.90
2019-02-28T14:26:05.446Z,43.42
2019-02-28T14:31:11.085Z,40.20
2019-02-28T14:36:16.575Z,41.18
2019-02-28T14:41:24.631Z,40.60
2019-02-28T14:46:29.127Z,50.40
2019-02-28T14:51:34.546Z,38.85
2019-02-28T14:56:42.261Z,40.15
2019-02-28T15:01:49.568Z,39.10
2019-02-28T15:06:55.306Z,42.90
2019-02-28T15:12:00.863Z,48.42
2019-02-28T15:17:07.696Z,46.05
2019-02-28T15:22:17.228Z,49.48
2019-02-28T15:27:21.465Z,48.33
2019-02-28T15:32:27.063Z,47.95
2019-02-28T15:37:33.677Z,43.30
2019-02-28T15:42:42.629Z,42.78
2019-02-28T15:47:46.927Z,42.58
2019-02-28T15:52:52.946Z,50.60
2019-02-28T15:57:58.521Z,46.80
2019-02-28T16:03:04.573Z,41.88
2019-02-28T16:08:10.787Z,41.55
2019-02-28T16:13:17.471Z,44.08
2019-02-28T16:18:22.989Z,44.13
2019-02-28T16:23:30.924Z,51.28
2019-02-28T16:28:39.447Z,46.55
2019-02-28T16:33:43.887Z,52.43
2019-02-28T16:38:49.412Z,51.37
2019-02-28T16:43:55.473Z,54.48
2019-02-28T16:49:01.838Z,52.25
2019-02-28T16:54:07.386Z,54.27
2019-02-28T16:59:12.821Z,53.83
2019-02-28T17:04:18.488Z,57.90
2019-02-28T17:09:26.568Z,55.55
2019-02-28T17:14:35.718Z,56.77
2019-02-28T17:19:41.592Z,56.50
2019-02-28T17:24:47.028Z,54.30
2019-02-28T17:29:54.074Z,56.25
2019-02-28T17:34:59.660Z,64.70
2019-02-28T17:40:11.099Z,59.73
2019-02-28T17:45:20.239Z,61.83
2019-02-28T17:50:44.060Z,65.87
2019-02-28T17:56:03.806Z,67.03
2019-02-28T18:01:11.618Z,70.28
2019-02-28T18:06:47.298Z,69.32
2019-02-28T18:12:05.974Z,62.83
2019-02-28T18:17:44.908Z,64.87
2019-02-28T18:22:55.864Z,61.65
2019-02-28T18:28:22.631Z,65.40
2019-02-28T18:33:26.123Z,63.68
2019-02-28T18:38:31.700Z,71.85
2019-02-28T18:43:37.288Z,78.45
2019-02-28T18:48:43.422Z,70.85
2019-02-28T18:53:49.076Z,73.87
2019-02-28T18:58:54.960Z,69.82
2019-02-28T19:04:01.360Z,67.45
2019-02-28T19:09:16.914Z,61.05
2019-02-28T19:14:22.522Z,74.72
2019-02-28T19:19:28.903Z,75.08
2019-02-28T19:24:35.438Z,76.17
2019-02-28T19:29:41.764Z,71.28
2019-02-28T19:34:48.402Z,70.00
2019-02-28T19:39:53.847Z,64.10
2019-02-28T19:44:59.499Z,68.07
2019-02-28T19:50:07.892Z,68.00
2019-02-28T19:55:16.509Z,60.12
2019-02-28T20:00:22.093Z,55.17
2019-02-28T20:05:27.596Z,55.35
2019-02-28T20:10:33.106Z,59.77
2019-02-28T20:15:40.377Z,56.65
2019-02-28T20:20:46.461Z,78.20
2019-02-28T20:25:52.047Z,167.47
2019-02-28T20:30:58.359Z,61.35
2019-02-28T20:36:03.884Z,59.75
2019-02-28T20:41:09.535Z,62.33
2019-02-28T20:46:14.888Z,61.80
2019-02-28T20:51:20.306Z,68.92
2019-02-28T20:56:25.732Z,68.10
2019-02-28T21:01:31.664Z,71.72
2019-02-28T21:06:37.447Z,64.42
2019-02-28T21:11:42.959Z,73.55
2019-02-28T21:16:48.484Z,77.27
2019-02-28T21:21:53.910Z,81.75
2019-02-28T21:26:59.420Z,80.38
2019-02-28T21:32:04.977Z,85.62
2019-02-28T21:37:10.843Z,79.15
2019-02-28T21:42:17.254Z,78.83
2019-02-28T21:47:22.607Z,83.12
2019-02-28T21:52:27.989Z,93.95
2019-02-28T21:57:33.461Z,82.45
2019-02-28T22:02:38.949Z,80.42
2019-02-28T22:07:44.822Z,81.80
2019-02-28T22:12:50.324Z,83.22
2019-02-28T22:17:56.625Z,145.62
2019-02-28T22:23:02.121Z,103.35
2019-02-28T22:28:07.541Z,96.87
2019-02-28T22:33:27.564Z,92.85
2019-02-28T22:38:33.046Z,97.02
2019-02-28T22:43:38.405Z,103.22
2019-02-28T22:48:43.842Z,111.83
2019-02-28T22:53:49.355Z,98.10
2019-02-28T22:58:54.777Z,117.03
2019-02-28T23:04:00.295Z,113.15
2019-02-28T23:09:06.279Z,108.07
2019-02-28T23:14:11.789Z,144.15
2019-02-28T23:19:17.238Z,107.00
2019-02-28T23:24:22.756Z,93.52
2019-02-28T23:29:28.782Z,95.95
2019-02-28T23:34:36.166Z,114.22
2019-02-28T23:39:41.669Z,123.28
2019-02-28T23:44:47.086Z,111.97
2019-02-28T23:49:52.433Z,144.53
2019-02-28T23:54:57.788Z,134.40
